sensor_id;sensor_type;location;lat;lon;timestamp;P1;durP1;ratioP1;P2;durP2;ratioP2
25263;SDS011;13211;51.796;5.808;2022-10-23T00:03:46;12.20;;;7.32;;
25263;SDS011;13211;51.796;5.808;2022-10-23T00:06:14;13.45;;;7.47;;
25263;SDS011;13211;51.796;5.808;2022-10-23T00:08:42;20.35;;;8.35;;
25263;SDS011;13211;51.796;5.808;2022-10-23T00:11:13;22.23;;;8.07;;
25263;SDS011;13211;51.796;5.808;2022-10-23T00:13:41;16.08;;;8.63;;
25263;SDS011;13211;51.796;5.808;2022-10-23T00:16:09;19.13;;;7.75;;
25263;SDS011;13211;51.796;5.808;2022-10-23T00:18:37;27.83;;;9.45;;
25263;SDS011;13211;51.796;5.808;2022-10-23T00:21:08;18.83;;;8.43;;
25263;SDS011;13211;51.796;5.808;2022-10-23T00:23:36;18.50;;;7.57;;
25263;SDS011;13211;51.796;5.808;2022-10-23T00:26:04;17.55;;;7.88;;
25263;SDS011;13211;51.796;5.808;2022-10-23T00:28:33;22.23;;;7.82;;
25263;SDS011;13211;51.796;5.808;2022-10-23T00:33:33;18.27;;;7.93;;
25263;SDS011;13211;51.796;5.808;2022-10-23T00:36:05;19.75;;;7.53;;
25263;SDS011;13211;51.796;5.808;2022-10-23T00:38:33;20.38;;;7.82;;
25263;SDS011;13211;51.796;5.808;2022-10-23T00:41:01;18.20;;;7.65;;
25263;SDS011;13211;51.796;5.808;2022-10-23T00:43:30;18.98;;;7.10;;
25263;SDS011;13211;51.796;5.808;2022-10-23T00:45:59;21.17;;;8.30;;
25263;SDS011;13211;51.796;5.808;2022-10-23T00:48:27;19.40;;;7.80;;
25263;SDS011;13211;51.796;5.808;2022-10-23T00:50:58;19.52;;;8.07;;
25263;SDS011;13211;51.796;5.808;2022-10-23T00:53:26;21.08;;;7.80;;
25263;SDS011;13211;51.796;5.808;2022-10-23T00:55:55;24.50;;;7.93;;
25263;SDS011;13211;51.796;5.808;2022-10-23T00:58:26;18.25;;;6.93;;
25263;SDS011;13211;51.796;5.808;2022-10-23T01:00:54;22.13;;;7.13;;
25263;SDS011;13211;51.796;5.808;2022-10-23T01:03:23;15.98;;;6.93;;
25263;SDS011;13211;51.796;5.808;2022-10-23T01:05:53;17.88;;;7.13;;
25263;SDS011;13211;51.796;5.808;2022-10-23T01:11:19;13.57;;;6.70;;
25263;SDS011;13211;51.796;5.808;2022-10-23T01:16:24;14.80;;;6.40;;
25263;SDS011;13211;51.796;5.808;2022-10-23T01:19:07;15.95;;;6.95;;
25263;SDS011;13211;51.796;5.808;2022-10-23T01:30:03;24.73;;;7.60;;
25263;SDS011;13211;51.796;5.808;2022-10-23T01:32:52;14.63;;;6.82;;
25263;SDS011;13211;51.796;5.808;2022-10-23T01:35:31;18.73;;;6.85;;
25263;SDS011;13211;51.796;5.808;2022-10-23T01:40:48;20.88;;;6.78;;
25263;SDS011;13211;51.796;5.808;2022-10-23T01:43:25;15.82;;;6.50;;
25263;SDS011;13211;51.796;5.808;2022-10-23T01:45:59;14.93;;;6.32;;
25263;SDS011;13211;51.796;5.808;2022-10-23T01:48:28;19.83;;;6.18;;
25263;SDS011;13211;51.796;5.808;2022-10-23T01:50:58;17.02;;;6.50;;
25263;SDS011;13211;51.796;5.808;2022-10-23T01:55:57;15.38;;;6.30;;
25263;SDS011;13211;51.796;5.808;2022-10-23T01:58:31;17.58;;;6.72;;
25263;SDS011;13211;51.796;5.808;2022-10-23T02:01:04;19.48;;;6.22;;
25263;SDS011;13211;51.796;5.808;2022-10-23T02:03:45;17.20;;;7.03;;
25263;SDS011;13211;51.796;5.808;2022-10-23T02:06:15;15.65;;;6.82;;
25263;SDS011;13211;51.796;5.808;2022-10-23T02:08:44;20.60;;;6.75;;
25263;SDS011;13211;51.796;5.808;2022-10-23T02:11:13;17.83;;;6.35;;
25263;SDS011;13211;51.796;5.808;2022-10-23T02:16:24;18.17;;;6.63;;
25263;SDS011;13211;51.796;5.808;2022-10-23T02:24:19;25.52;;;7.55;;
25263;SDS011;13211;51.796;5.808;2022-10-23T02:26:53;20.85;;;7.38;;
25263;SDS011;13211;51.796;5.808;2022-10-23T02:32:00;16.35;;;7.68;;
25263;SDS011;13211;51.796;5.808;2022-10-23T02:34:28;19.63;;;6.93;;
25263;SDS011;13211;51.796;5.808;2022-10-23T02:36:56;20.23;;;6.57;;
25263;SDS011;13211;51.796;5.808;2022-10-23T02:39:25;15.63;;;7.15;;
25263;SDS011;13211;51.796;5.808;2022-10-23T02:44:45;26.35;;;7.03;;
25263;SDS011;13211;51.796;5.808;2022-10-23T02:52:43;18.98;;;7.10;;
25263;SDS011;13211;51.796;5.808;2022-10-23T03:00:23;17.98;;;6.53;;
25263;SDS011;13211;51.796;5.808;2022-10-23T03:05:21;20.58;;;7.97;;
25263;SDS011;13211;51.796;5.808;2022-10-23T03:07:51;20.70;;;7.35;;
25263;SDS011;13211;51.796;5.808;2022-10-23T03:10:23;21.35;;;8.10;;
25263;SDS011;13211;51.796;5.808;2022-10-23T03:12:51;17.58;;;7.25;;
25263;SDS011;13211;51.796;5.808;2022-10-23T03:15:20;22.02;;;7.20;;
25263;SDS011;13211;51.796;5.808;2022-10-23T03:17:49;24.95;;;6.90;;
25263;SDS011;13211;51.796;5.808;2022-10-23T03:20:24;25.55;;;7.63;;
25263;SDS011;13211;51.796;5.808;2022-10-23T03:22:52;15.60;;;7.05;;
25263;SDS011;13211;51.796;5.808;2022-10-23T03:25:20;13.93;;;6.95;;
25263;SDS011;13211;51.796;5.808;2022-10-23T03:27:48;17.08;;;6.93;;
25263;SDS011;13211;51.796;5.808;2022-10-23T03:30:16;17.92;;;6.22;;
25263;SDS011;13211;51.796;5.808;2022-10-23T03:32:48;16.77;;;6.55;;
25263;SDS011;13211;51.796;5.808;2022-10-23T03:35:16;16.13;;;6.60;;
25263;SDS011;13211;51.796;5.808;2022-10-23T03:37:44;18.35;;;6.47;;
25263;SDS011;13211;51.796;5.808;2022-10-23T03:40:12;14.52;;;6.35;;
25263;SDS011;13211;51.796;5.808;2022-10-23T03:42:41;14.25;;;5.95;;
25263;SDS011;13211;51.796;5.808;2022-10-23T03:45:13;13.98;;;6.03;;
25263;SDS011;13211;51.796;5.808;2022-10-23T03:47:41;15.43;;;5.63;;
25263;SDS011;13211;51.796;5.808;2022-10-23T03:50:12;15.50;;;5.65;;
25263;SDS011;13211;51.796;5.808;2022-10-23T03:52:40;18.35;;;6.28;;
25263;SDS011;13211;51.796;5.808;2022-10-23T03:55:11;13.13;;;5.88;;
25263;SDS011;13211;51.796;5.808;2022-10-23T03:57:39;14.93;;;5.38;;
25263;SDS011;13211;51.796;5.808;2022-10-23T04:00:08;15.10;;;6.00;;
25263;SDS011;13211;51.796;5.808;2022-10-23T04:02:42;14.93;;;6.05;;
25263;SDS011;13211;51.796;5.808;2022-10-23T04:05:10;14.10;;;5.90;;
25263;SDS011;13211;51.796;5.808;2022-10-23T04:07:47;14.43;;;5.90;;
25263;SDS011;13211;51.796;5.808;2022-10-23T04:10:15;18.75;;;5.82;;
25263;SDS011;13211;51.796;5.808;2022-10-23T04:12:43;13.80;;;5.22;;
25263;SDS011;13211;51.796;5.808;2022-10-23T04:15:11;20.17;;;6.05;;
25263;SDS011;13211;51.796;5.808;2022-10-23T04:17:42;17.83;;;5.20;;
25263;SDS011;13211;51.796;5.808;2022-10-23T04:20:10;16.25;;;5.32;;
25263;SDS011;13211;51.796;5.808;2022-10-23T04:22:38;17.05;;;4.90;;
25263;SDS011;13211;51.796;5.808;2022-10-23T04:25:10;14.05;;;4.80;;
25263;SDS011;13211;51.796;5.808;2022-10-23T04:27:37;13.48;;;5.05;;
25263;SDS011;13211;51.796;5.808;2022-10-23T04:30:06;14.20;;;5.20;;
25263;SDS011;13211;51.796;5.808;2022-10-23T04:32:36;18.02;;;5.50;;
25263;SDS011;13211;51.796;5.808;2022-10-23T04:35:04;14.75;;;5.00;;
25263;SDS011;13211;51.796;5.808;2022-10-23T04:37:33;13.60;;;4.53;;
25263;SDS011;13211;51.796;5.808;2022-10-23T04:40:04;13.35;;;4.43;;
25263;SDS011;13211;51.796;5.808;2022-10-23T04:42:35;12.30;;;4.90;;
25263;SDS011;13211;51.796;5.808;2022-10-23T04:45:04;12.25;;;4.20;;
25263;SDS011;13211;51.796;5.808;2022-10-23T04:47:33;12.32;;;4.30;;
25263;SDS011;13211;51.796;5.808;2022-10-23T04:50:02;14.30;;;4.68;;
25263;SDS011;13211;51.796;5.808;2022-10-23T04:52:56;10.68;;;4.10;;
25263;SDS011;13211;51.796;5.808;2022-10-23T04:55:49;16.70;;;5.60;;
25263;SDS011;13211;51.796;5.808;2022-10-23T04:58:24;23.90;;;4.82;;
25263;SDS011;13211;51.796;5.808;2022-10-23T05:01:00;17.98;;;5.57;;
25263;SDS011;13211;51.796;5.808;2022-10-23T05:03:30;9.43;;;4.95;;
25263;SDS011;13211;51.796;5.808;2022-10-23T05:05:58;19.33;;;5.28;;
25263;SDS011;13211;51.796;5.808;2022-10-23T05:08:58;11.85;;;4.95;;
25263;SDS011;13211;51.796;5.808;2022-10-23T05:11:53;10.32;;;4.53;;
25263;SDS011;13211;51.796;5.808;2022-10-23T05:14:22;13.07;;;5.15;;
25263;SDS011;13211;51.796;5.808;2022-10-23T05:16:51;14.65;;;5.70;;
25263;SDS011;13211;51.796;5.808;2022-10-23T05:19:22;13.73;;;5.78;;
25263;SDS011;13211;51.796;5.808;2022-10-23T05:21:53;12.57;;;5.53;;
25263;SDS011;13211;51.796;5.808;2022-10-23T05:24:36;17.83;;;5.97;;
25263;SDS011;13211;51.796;5.808;2022-10-23T05:27:07;17.95;;;6.03;;
25263;SDS011;13211;51.796;5.808;2022-10-23T05:29:38;17.33;;;6.78;;
25263;SDS011;13211;51.796;5.808;2022-10-23T05:32:07;22.27;;;7.00;;
25263;SDS011;13211;51.796;5.808;2022-10-23T05:34:37;21.52;;;6.95;;
25263;SDS011;13211;51.796;5.808;2022-10-23T05:37:08;14.88;;;7.10;;
25263;SDS011;13211;51.796;5.808;2022-10-23T05:39:39;23.25;;;7.28;;
25263;SDS011;13211;51.796;5.808;2022-10-23T05:42:13;24.60;;;7.05;;
25263;SDS011;13211;51.796;5.808;2022-10-23T05:44:42;16.95;;;7.30;;
25263;SDS011;13211;51.796;5.808;2022-10-23T05:47:35;16.48;;;6.25;;
25263;SDS011;13211;51.796;5.808;2022-10-23T05:50:35;19.20;;;6.87;;
25263;SDS011;13211;51.796;5.808;2022-10-23T05:53:25;18.87;;;6.63;;
25263;SDS011;13211;51.796;5.808;2022-10-23T05:56:05;19.85;;;6.43;;
25263;SDS011;13211;51.796;5.808;2022-10-23T05:58:41;19.00;;;7.22;;
25263;SDS011;13211;51.796;5.808;2022-10-23T06:01:19;18.48;;;6.38;;
25263;SDS011;13211;51.796;5.808;2022-10-23T06:04:00;17.42;;;6.18;;
25263;SDS011;13211;51.796;5.808;2022-10-23T06:06:50;14.77;;;6.38;;
25263;SDS011;13211;51.796;5.808;2022-10-23T06:09:19;17.98;;;6.70;;
25263;SDS011;13211;51.796;5.808;2022-10-23T06:11:48;13.23;;;5.78;;
25263;SDS011;13211;51.796;5.808;2022-10-23T06:14:20;20.67;;;7.88;;
25263;SDS011;13211;51.796;5.808;2022-10-23T06:16:52;20.48;;;6.35;;
25263;SDS011;13211;51.796;5.808;2022-10-23T06:19:22;19.60;;;6.13;;
25263;SDS011;13211;51.796;5.808;2022-10-23T06:21:53;17.73;;;5.88;;
25263;SDS011;13211;51.796;5.808;2022-10-23T06:24:34;17.30;;;5.95;;
25263;SDS011;13211;51.796;5.808;2022-10-23T06:27:07;21.23;;;5.80;;
25263;SDS011;13211;51.796;5.808;2022-10-23T06:29:46;17.95;;;6.28;;
25263;SDS011;13211;51.796;5.808;2022-10-23T06:32:16;14.38;;;5.63;;
25263;SDS011;13211;51.796;5.808;2022-10-23T06:34:58;16.80;;;5.68;;
25263;SDS011;13211;51.796;5.808;2022-10-23T06:37:32;16.67;;;5.88;;
25263;SDS011;13211;51.796;5.808;2022-10-23T06:40:08;16.67;;;5.53;;
25263;SDS011;13211;51.796;5.808;2022-10-23T06:42:55;16.05;;;6.20;;
25263;SDS011;13211;51.796;5.808;2022-10-23T06:45:28;12.65;;;5.60;;
25263;SDS011;13211;51.796;5.808;2022-10-23T06:48:11;15.13;;;5.90;;
25263;SDS011;13211;51.796;5.808;2022-10-23T06:51:03;16.80;;;5.53;;
25263;SDS011;13211;51.796;5.808;2022-10-23T06:53:40;12.10;;;5.63;;
25263;SDS011;13211;51.796;5.808;2022-10-23T06:56:42;21.17;;;5.55;;
25263;SDS011;13211;51.796;5.808;2022-10-23T06:59:12;8.80;;;4.88;;
25263;SDS011;13211;51.796;5.808;2022-10-23T07:01:40;13.80;;;4.93;;
25263;SDS011;13211;51.796;5.808;2022-10-23T07:04:09;10.57;;;4.93;;
25263;SDS011;13211;51.796;5.808;2022-10-23T07:06:41;17.80;;;5.22;;
25263;SDS011;13211;51.796;5.808;2022-10-23T07:09:09;16.60;;;4.87;;
25263;SDS011;13211;51.796;5.808;2022-10-23T07:11:49;16.77;;;5.22;;
25263;SDS011;13211;51.796;5.808;2022-10-23T07:14:20;10.45;;;4.57;;
25263;SDS011;13211;51.796;5.808;2022-10-23T07:16:48;15.90;;;4.93;;
25263;SDS011;13211;51.796;5.808;2022-10-23T07:19:16;15.43;;;4.82;;
25263;SDS011;13211;51.796;5.808;2022-10-23T07:22:01;13.38;;;5.03;;
25263;SDS011;13211;51.796;5.808;2022-10-23T07:24:49;13.10;;;5.78;;
25263;SDS011;13211;51.796;5.808;2022-10-23T07:27:25;19.80;;;4.75;;
25263;SDS011;13211;51.796;5.808;2022-10-23T07:29:56;15.27;;;5.43;;
25263;SDS011;13211;51.796;5.808;2022-10-23T07:32:28;10.70;;;4.45;;
25263;SDS011;13211;51.796;5.808;2022-10-23T07:35:17;13.15;;;4.85;;
25263;SDS011;13211;51.796;5.808;2022-10-23T07:37:55;14.80;;;5.07;;
25263;SDS011;13211;51.796;5.808;2022-10-23T07:40:23;14.70;;;4.85;;
25263;SDS011;13211;51.796;5.808;2022-10-23T07:42:55;16.08;;;5.00;;
25263;SDS011;13211;51.796;5.808;2022-10-23T07:47:55;19.92;;;4.78;;
25263;SDS011;13211;51.796;5.808;2022-10-23T07:50:38;11.40;;;4.82;;
25263;SDS011;13211;51.796;5.808;2022-10-23T07:53:10;11.90;;;4.50;;
25263;SDS011;13211;51.796;5.808;2022-10-23T07:55:42;13.07;;;4.40;;
25263;SDS011;13211;51.796;5.808;2022-10-23T07:58:14;8.75;;;4.25;;
25263;SDS011;13211;51.796;5.808;2022-10-23T08:00:47;10.27;;;4.55;;
25263;SDS011;13211;51.796;5.808;2022-10-23T08:03:26;11.80;;;4.50;;
25263;SDS011;13211;51.796;5.808;2022-10-23T08:05:56;15.13;;;4.00;;
25263;SDS011;13211;51.796;5.808;2022-10-23T08:08:32;12.90;;;4.20;;
25263;SDS011;13211;51.796;5.808;2022-10-23T08:11:03;16.25;;;4.10;;
25263;SDS011;13211;51.796;5.808;2022-10-23T08:13:41;10.63;;;4.07;;
25263;SDS011;13211;51.796;5.808;2022-10-23T08:16:10;12.73;;;4.10;;
25263;SDS011;13211;51.796;5.808;2022-10-23T08:18:58;11.43;;;4.28;;
25263;SDS011;13211;51.796;5.808;2022-10-23T08:21:27;11.90;;;4.70;;
25263;SDS011;13211;51.796;5.808;2022-10-23T08:23:57;11.38;;;4.00;;
25263;SDS011;13211;51.796;5.808;2022-10-23T08:26:30;10.82;;;3.85;;
25263;SDS011;13211;51.796;5.808;2022-10-23T08:28:58;13.13;;;3.97;;
25263;SDS011;13211;51.796;5.808;2022-10-23T08:31:26;13.15;;;4.05;;
25263;SDS011;13211;51.796;5.808;2022-10-23T08:34:20;12.30;;;3.75;;
25263;SDS011;13211;51.796;5.808;2022-10-23T08:36:50;14.05;;;4.05;;
25263;SDS011;13211;51.796;5.808;2022-10-23T08:39:19;17.45;;;3.65;;
25263;SDS011;13211;51.796;5.808;2022-10-23T08:42:21;10.38;;;3.42;;
25263;SDS011;13211;51.796;5.808;2022-10-23T08:47:41;6.40;;;3.50;;
25263;SDS011;13211;51.796;5.808;2022-10-23T08:50:31;16.40;;;3.88;;
25263;SDS011;13211;51.796;5.808;2022-10-23T08:53:12;11.02;;;3.58;;
25263;SDS011;13211;51.796;5.808;2022-10-23T08:55:44;9.05;;;3.42;;
25263;SDS011;13211;51.796;5.808;2022-10-23T08:58:16;11.53;;;3.63;;
25263;SDS011;13211;51.796;5.808;2022-10-23T09:00:47;12.20;;;4.20;;
25263;SDS011;13211;51.796;5.808;2022-10-23T09:03:19;9.23;;;3.50;;
25263;SDS011;13211;51.796;5.808;2022-10-23T09:11:01;15.20;;;3.55;;
25263;SDS011;13211;51.796;5.808;2022-10-23T09:13:42;13.32;;;3.83;;
25263;SDS011;13211;51.796;5.808;2022-10-23T09:18:57;13.40;;;3.40;;
25263;SDS011;13211;51.796;5.808;2022-10-23T09:21:31;9.75;;;3.15;;
25263;SDS011;13211;51.796;5.808;2022-10-23T09:24:02;8.93;;;3.15;;
25263;SDS011;13211;51.796;5.808;2022-10-23T09:26:39;10.25;;;3.22;;
25263;SDS011;13211;51.796;5.808;2022-10-23T09:29:28;9.82;;;3.20;;
25263;SDS011;13211;51.796;5.808;2022-10-23T09:32:02;8.80;;;3.28;;
25263;SDS011;13211;51.796;5.808;2022-10-23T09:34:31;12.13;;;3.15;;
25263;SDS011;13211;51.796;5.808;2022-10-23T09:37:03;11.82;;;3.53;;
25263;SDS011;13211;51.796;5.808;2022-10-23T09:39:48;10.90;;;2.88;;
25263;SDS011;13211;51.796;5.808;2022-10-23T09:42:22;14.68;;;3.00;;
25263;SDS011;13211;51.796;5.808;2022-10-23T09:44:52;9.63;;;3.08;;
25263;SDS011;13211;51.796;5.808;2022-10-23T09:47:22;13.48;;;3.08;;
25263;SDS011;13211;51.796;5.808;2022-10-23T09:49:52;8.60;;;3.83;;
25263;SDS011;13211;51.796;5.808;2022-10-23T09:52:28;6.95;;;2.60;;
25263;SDS011;13211;51.796;5.808;2022-10-23T09:55:01;11.68;;;2.88;;
25263;SDS011;13211;51.796;5.808;2022-10-23T09:57:40;13.68;;;3.10;;
25263;SDS011;13211;51.796;5.808;2022-10-23T10:00:19;8.77;;;2.80;;
25263;SDS011;13211;51.796;5.808;2022-10-23T10:03:04;12.02;;;3.17;;
25263;SDS011;13211;51.796;5.808;2022-10-23T10:05:34;7.15;;;2.97;;
25263;SDS011;13211;51.796;5.808;2022-10-23T10:10:44;11.02;;;2.97;;
25263;SDS011;13211;51.796;5.808;2022-10-23T10:24:06;12.57;;;2.40;;
25263;SDS011;13211;51.796;5.808;2022-10-23T10:26:45;10.07;;;2.67;;
25263;SDS011;13211;51.796;5.808;2022-10-23T10:37:20;6.35;;;2.60;;
25263;SDS011;13211;51.796;5.808;2022-10-23T10:40:02;11.98;;;2.05;;
25263;SDS011;13211;51.796;5.808;2022-10-23T10:42:54;10.20;;;2.30;;
25263;SDS011;13211;51.796;5.808;2022-10-23T10:45:40;8.38;;;2.35;;
25263;SDS011;13211;51.796;5.808;2022-10-23T10:51:33;9.65;;;2.58;;
25263;SDS011;13211;51.796;5.808;2022-10-23T10:54:11;10.45;;;2.88;;
25263;SDS011;13211;51.796;5.808;2022-10-23T10:56:42;10.37;;;2.47;;
25263;SDS011;13211;51.796;5.808;2022-10-23T10:59:26;4.00;;;2.10;;
25263;SDS011;13211;51.796;5.808;2022-10-23T11:01:58;8.40;;;2.25;;
25263;SDS011;13211;51.796;5.808;2022-10-23T11:06:58;7.65;;;2.03;;
25263;SDS011;13211;51.796;5.808;2022-10-23T11:09:30;10.30;;;2.40;;
25263;SDS011;13211;51.796;5.808;2022-10-23T11:12:00;9.40;;;2.45;;
25263;SDS011;13211;51.796;5.808;2022-10-23T11:14:29;7.18;;;2.05;;
25263;SDS011;13211;51.796;5.808;2022-10-23T11:22:25;6.47;;;2.03;;
25263;SDS011;13211;51.796;5.808;2022-10-23T11:30:30;7.78;;;2.10;;
25263;SDS011;13211;51.796;5.808;2022-10-23T11:35:52;12.50;;;2.20;;
25263;SDS011;13211;51.796;5.808;2022-10-23T11:38:33;9.05;;;2.22;;
25263;SDS011;13211;51.796;5.808;2022-10-23T11:41:06;9.38;;;2.55;;
25263;SDS011;13211;51.796;5.808;2022-10-23T11:43:49;4.55;;;1.70;;
25263;SDS011;13211;51.796;5.808;2022-10-23T11:48:52;13.50;;;3.35;;
25263;SDS011;13211;51.796;5.808;2022-10-23T11:51:28;17.83;;;2.38;;
25263;SDS011;13211;51.796;5.808;2022-10-23T11:54:04;11.32;;;2.42;;
25263;SDS011;13211;51.796;5.808;2022-10-23T11:56:36;7.55;;;2.15;;
25263;SDS011;13211;51.796;5.808;2022-10-23T11:59:23;7.30;;;1.92;;
25263;SDS011;13211;51.796;5.808;2022-10-23T12:07:42;8.18;;;2.25;;
25263;SDS011;13211;51.796;5.808;2022-10-23T12:10:23;13.93;;;2.55;;
25263;SDS011;13211;51.796;5.808;2022-10-23T12:15:21;8.50;;;2.22;;
25263;SDS011;13211;51.796;5.808;2022-10-23T12:17:51;8.18;;;2.20;;
25263;SDS011;13211;51.796;5.808;2022-10-23T12:23:17;8.73;;;2.40;;
25263;SDS011;13211;51.796;5.808;2022-10-23T12:28:34;15.85;;;2.17;;
25263;SDS011;13211;51.796;5.808;2022-10-23T12:31:21;16.20;;;1.83;;
25263;SDS011;13211;51.796;5.808;2022-10-23T12:33:55;11.18;;;2.47;;
25263;SDS011;13211;51.796;5.808;2022-10-23T12:39:27;7.53;;;2.22;;
25263;SDS011;13211;51.796;5.808;2022-10-23T12:41:57;8.30;;;2.15;;
25263;SDS011;13211;51.796;5.808;2022-10-23T12:44:26;7.35;;;2.10;;
25263;SDS011;13211;51.796;5.808;2022-10-23T12:47:04;8.95;;;2.00;;
25263;SDS011;13211;51.796;5.808;2022-10-23T12:49:33;12.52;;;2.25;;
25263;SDS011;13211;51.796;5.808;2022-10-23T12:52:03;7.15;;;2.00;;
25263;SDS011;13211;51.796;5.808;2022-10-23T12:54:32;5.25;;;1.95;;
25263;SDS011;13211;51.796;5.808;2022-10-23T12:57:23;12.10;;;3.28;;
25263;SDS011;13211;51.796;5.808;2022-10-23T12:59:54;6.03;;;1.95;;
25263;SDS011;13211;51.796;5.808;2022-10-23T13:02:28;4.65;;;1.70;;
25263;SDS011;13211;51.796;5.808;2022-10-23T13:04:59;3.03;;;1.65;;
25263;SDS011;13211;51.796;5.808;2022-10-23T13:07:32;8.98;;;2.10;;
25263;SDS011;13211;51.796;5.808;2022-10-23T13:10:03;6.18;;;2.33;;
25263;SDS011;13211;51.796;5.808;2022-10-23T13:12:35;9.60;;;2.03;;
25263;SDS011;13211;51.796;5.808;2022-10-23T13:17:41;6.43;;;2.33;;
25263;SDS011;13211;51.796;5.808;2022-10-23T13:22:45;13.88;;;2.95;;
25263;SDS011;13211;51.796;5.808;2022-10-23T13:25:18;6.45;;;2.30;;
25263;SDS011;13211;51.796;5.808;2022-10-23T13:27:48;4.30;;;2.00;;
25263;SDS011;13211;51.796;5.808;2022-10-23T13:32:46;9.52;;;2.47;;
25263;SDS011;13211;51.796;5.808;2022-10-23T13:35:21;7.53;;;2.08;;
25263;SDS011;13211;51.796;5.808;2022-10-23T13:37:49;5.13;;;1.98;;
25263;SDS011;13211;51.796;5.808;2022-10-23T13:40:22;7.20;;;1.85;;
25263;SDS011;13211;51.796;5.808;2022-10-23T13:42:51;10.40;;;2.58;;
25263;SDS011;13211;51.796;5.808;2022-10-23T13:45:23;9.15;;;2.60;;
25263;SDS011;13211;51.796;5.808;2022-10-23T13:47:51;6.03;;;2.22;;
25263;SDS011;13211;51.796;5.808;2022-10-23T13:50:19;7.75;;;2.53;;
25263;SDS011;13211;51.796;5.808;2022-10-23T13:52:46;6.88;;;2.30;;
25263;SDS011;13211;51.796;5.808;2022-10-23T13:55:17;11.02;;;2.20;;
25263;SDS011;13211;51.796;5.808;2022-10-23T13:57:46;10.43;;;2.10;;
25263;SDS011;13211;51.796;5.808;2022-10-23T14:00:15;12.55;;;2.90;;
25263;SDS011;13211;51.796;5.808;2022-10-23T14:02:43;10.77;;;2.47;;
25263;SDS011;13211;51.796;5.808;2022-10-23T14:05:11;10.02;;;2.53;;
25263;SDS011;13211;51.796;5.808;2022-10-23T14:07:40;5.18;;;2.28;;
25263;SDS011;13211;51.796;5.808;2022-10-23T14:10:09;8.48;;;2.28;;
25263;SDS011;13211;51.796;5.808;2022-10-23T14:12:41;10.23;;;2.60;;
25263;SDS011;13211;51.796;5.808;2022-10-23T14:15:14;8.65;;;2.70;;
25263;SDS011;13211;51.796;5.808;2022-10-23T14:17:42;8.90;;;2.50;;
25263;SDS011;13211;51.796;5.808;2022-10-23T14:20:11;6.97;;;2.30;;
25263;SDS011;13211;51.796;5.808;2022-10-23T14:22:39;7.45;;;2.42;;
25263;SDS011;13211;51.796;5.808;2022-10-23T14:25:08;5.93;;;2.10;;
25263;SDS011;13211;51.796;5.808;2022-10-23T14:27:36;11.55;;;2.42;;
25263;SDS011;13211;51.796;5.808;2022-10-23T14:30:04;12.35;;;2.90;;
25263;SDS011;13211;51.796;5.808;2022-10-23T14:32:32;5.57;;;2.13;;
25263;SDS011;13211;51.796;5.808;2022-10-23T14:35:02;6.72;;;2.30;;
25263;SDS011;13211;51.796;5.808;2022-10-23T14:37:30;5.95;;;2.45;;
25263;SDS011;13211;51.796;5.808;2022-10-23T14:39:59;15.05;;;2.88;;
25263;SDS011;13211;51.796;5.808;2022-10-23T14:42:27;6.55;;;2.30;;
25263;SDS011;13211;51.796;5.808;2022-10-23T14:45:00;12.63;;;2.42;;
25263;SDS011;13211;51.796;5.808;2022-10-23T14:47:28;8.48;;;2.58;;
25263;SDS011;13211;51.796;5.808;2022-10-23T14:49:57;6.68;;;2.40;;
25263;SDS011;13211;51.796;5.808;2022-10-23T14:52:28;10.70;;;2.35;;
25263;SDS011;13211;51.796;5.808;2022-10-23T14:54:57;33.03;;;3.60;;
25263;SDS011;13211;51.796;5.808;2022-10-23T14:57:27;13.60;;;2.85;;
25263;SDS011;13211;51.796;5.808;2022-10-23T14:59:56;8.05;;;2.38;;
25263;SDS011;13211;51.796;5.808;2022-10-23T15:02:37;15.27;;;2.70;;
25263;SDS011;13211;51.796;5.808;2022-10-23T15:05:05;10.43;;;2.75;;
25263;SDS011;13211;51.796;5.808;2022-10-23T15:07:33;11.77;;;2.92;;
25263;SDS011;13211;51.796;5.808;2022-10-23T15:10:02;7.93;;;2.30;;
25263;SDS011;13211;51.796;5.808;2022-10-23T15:12:32;4.38;;;1.98;;
25263;SDS011;13211;51.796;5.808;2022-10-23T15:15:00;11.38;;;2.22;;
25263;SDS011;13211;51.796;5.808;2022-10-23T15:17:32;5.63;;;1.98;;
25263;SDS011;13211;51.796;5.808;2022-10-23T15:20:01;3.88;;;2.10;;
25263;SDS011;13211;51.796;5.808;2022-10-23T15:22:31;14.45;;;3.80;;
25263;SDS011;13211;51.796;5.808;2022-10-23T15:25:00;15.05;;;3.47;;
25263;SDS011;13211;51.796;5.808;2022-10-23T15:27:27;8.65;;;2.90;;
25263;SDS011;13211;51.796;5.808;2022-10-23T15:29:57;11.98;;;3.00;;
25263;SDS011;13211;51.796;5.808;2022-10-23T15:32:27;13.27;;;2.80;;
25263;SDS011;13211;51.796;5.808;2022-10-23T15:35:01;13.15;;;2.58;;
25263;SDS011;13211;51.796;5.808;2022-10-23T15:37:29;15.52;;;3.10;;
25263;SDS011;13211;51.796;5.808;2022-10-23T15:39:56;17.15;;;3.03;;
25263;SDS011;13211;51.796;5.808;2022-10-23T15:42:35;11.10;;;2.95;;
25263;SDS011;13211;51.796;5.808;2022-10-23T15:45:04;9.40;;;3.00;;
25263;SDS011;13211;51.796;5.808;2022-10-23T15:47:33;6.00;;;2.90;;
25263;SDS011;13211;51.796;5.808;2022-10-23T15:50:01;9.48;;;2.80;;
25263;SDS011;13211;51.796;5.808;2022-10-23T15:52:30;10.25;;;3.40;;
25263;SDS011;13211;51.796;5.808;2022-10-23T15:54:58;9.70;;;3.42;;
25263;SDS011;13211;51.796;5.808;2022-10-23T15:57:28;12.47;;;2.80;;
25263;SDS011;13211;51.796;5.808;2022-10-23T15:59:57;10.40;;;2.92;;
25263;SDS011;13211;51.796;5.808;2022-10-23T16:02:28;10.57;;;2.63;;
25263;SDS011;13211;51.796;5.808;2022-10-23T16:04:57;12.60;;;2.92;;
25263;SDS011;13211;51.796;5.808;2022-10-23T16:07:26;13.65;;;3.03;;
25263;SDS011;13211;51.796;5.808;2022-10-23T16:09:54;11.30;;;3.13;;
25263;SDS011;13211;51.796;5.808;2022-10-23T16:12:23;9.98;;;3.30;;
25263;SDS011;13211;51.796;5.808;2022-10-23T16:14:51;8.80;;;2.90;;
25263;SDS011;13211;51.796;5.808;2022-10-23T16:17:19;12.00;;;3.35;;
25263;SDS011;13211;51.796;5.808;2022-10-23T16:19:50;9.15;;;3.30;;
25263;SDS011;13211;51.796;5.808;2022-10-23T16:22:17;11.25;;;3.20;;
25263;SDS011;13211;51.796;5.808;2022-10-23T16:24:45;11.30;;;3.30;;
25263;SDS011;13211;51.796;5.808;2022-10-23T16:27:14;6.28;;;2.80;;
25263;SDS011;13211;51.796;5.808;2022-10-23T16:29:45;12.43;;;3.30;;
25263;SDS011;13211;51.796;5.808;2022-10-23T16:32:13;11.38;;;3.30;;
25263;SDS011;13211;51.796;5.808;2022-10-23T16:34:41;8.90;;;2.75;;
25263;SDS011;13211;51.796;5.808;2022-10-23T16:37:08;9.20;;;2.95;;
25263;SDS011;13211;51.796;5.808;2022-10-23T16:39:50;8.60;;;3.33;;
25263;SDS011;13211;51.796;5.808;2022-10-23T16:42:41;8.80;;;2.90;;
25263;SDS011;13211;51.796;5.808;2022-10-23T16:45:22;8.98;;;2.95;;
25263;SDS011;13211;51.796;5.808;2022-10-23T16:47:50;7.82;;;2.83;;
25263;SDS011;13211;51.796;5.808;2022-10-23T16:50:18;11.55;;;2.95;;
25263;SDS011;13211;51.796;5.808;2022-10-23T16:52:46;9.30;;;3.40;;
25263;SDS011;13211;51.796;5.808;2022-10-23T16:55:18;9.45;;;3.22;;
25263;SDS011;13211;51.796;5.808;2022-10-23T16:57:46;8.55;;;2.88;;
25263;SDS011;13211;51.796;5.808;2022-10-23T17:00:14;13.00;;;3.55;;
25263;SDS011;13211;51.796;5.808;2022-10-23T17:02:42;9.38;;;2.97;;
25263;SDS011;13211;51.796;5.808;2022-10-23T17:05:10;8.93;;;3.30;;
25263;SDS011;13211;51.796;5.808;2022-10-23T17:07:38;8.93;;;3.15;;
25263;SDS011;13211;51.796;5.808;2022-10-23T17:10:05;15.80;;;3.67;;
25263;SDS011;13211;51.796;5.808;2022-10-23T17:12:36;8.00;;;3.28;;
25263;SDS011;13211;51.796;5.808;2022-10-23T17:15:04;7.90;;;3.00;;
25263;SDS011;13211;51.796;5.808;2022-10-23T17:17:32;7.70;;;2.80;;
25263;SDS011;13211;51.796;5.808;2022-10-23T17:20:00;13.43;;;3.30;;
25263;SDS011;13211;51.796;5.808;2022-10-23T17:22:27;15.43;;;4.18;;